sensor_id;sensor_type;location;lat;lon;timestamp;P1;durP1;ratioP1;P2;durP2;ratioP2
37389;SDS011;39679;49.000;8.390;2022-10-31T00:02:26;8.50;;;3.10;;
37389;SDS011;39679;49.000;8.390;2022-10-31T00:07:27;8.30;;;3.60;;
37389;SDS011;39679;49.000;8.390;2022-10-31T00:12:27;9.77;;;3.67;;
37389;SDS011;39679;49.000;8.390;2022-10-31T00:17:27;4.70;;;3.03;;
37389;SDS011;39679;49.000;8.390;2022-10-31T00:22:28;4.63;;;3.40;;
37389;SDS011;39679;49.000;8.390;2022-10-31T00:27:28;6.67;;;3.37;;
37389;SDS011;39679;49.000;8.390;2022-10-31T00:32:28;6.03;;;3.50;;
37389;SDS011;39679;49.000;8.390;2022-10-31T00:37:29;7.95;;;3.83;;
37389;SDS011;39679;49.000;8.390;2022-10-31T00:42:29;5.45;;;3.20;;
37389;SDS011;39679;49.000;8.390;2022-10-31T00:47:30;5.95;;;3.08;;
37389;SDS011;39679;49.000;8.390;2022-10-31T00:52:30;6.57;;;3.33;;
37389;SDS011;39679;49.000;8.390;2022-10-31T00:57:30;7.85;;;3.40;;
37389;SDS011;39679;49.000;8.390;2022-10-31T01:02:31;5.93;;;3.33;;
37389;SDS011;39679;49.000;8.390;2022-10-31T01:07:31;4.75;;;2.83;;
37389;SDS011;39679;49.000;8.390;2022-10-31T01:17:43;6.72;;;3.05;;
37389;SDS011;39679;49.000;8.390;2022-10-31T01:22:46;5.15;;;2.80;;
37389;SDS011;39679;49.000;8.390;2022-10-31T01:27:46;7.07;;;2.80;;
37389;SDS011;39679;49.000;8.390;2022-10-31T01:32:46;4.47;;;3.03;;
37389;SDS011;39679;49.000;8.390;2022-10-31T01:37:47;4.80;;;3.43;;
37389;SDS011;39679;49.000;8.390;2022-10-31T01:42:47;5.53;;;3.10;;
37389;SDS011;39679;49.000;8.390;2022-10-31T01:47:47;4.70;;;3.10;;
37389;SDS011;39679;49.000;8.390;2022-10-31T01:52:49;3.95;;;2.78;;
37389;SDS011;39679;49.000;8.390;2022-10-31T01:57:52;4.32;;;3.03;;
37389;SDS011;39679;49.000;8.390;2022-10-31T02:02:55;5.13;;;2.80;;
37389;SDS011;39679;49.000;8.390;2022-10-31T02:07:57;4.05;;;2.92;;
37389;SDS011;39679;49.000;8.390;2022-10-31T02:13:02;4.55;;;2.80;;
37389;SDS011;39679;49.000;8.390;2022-10-31T02:18:05;3.67;;;2.55;;
37389;SDS011;39679;49.000;8.390;2022-10-31T02:33:53;4.40;;;2.45;;
37389;SDS011;39679;49.000;8.390;2022-10-31T02:39:10;6.85;;;2.90;;
37389;SDS011;39679;49.000;8.390;2022-10-31T02:54:48;3.83;;;2.65;;
37389;SDS011;39679;49.000;8.390;2022-10-31T02:59:49;10.50;;;2.90;;
37389;SDS011;39679;49.000;8.390;2022-10-31T03:05:12;4.80;;;2.70;;
37389;SDS011;39679;49.000;8.390;2022-10-31T03:21:00;2.65;;;2.28;;
37389;SDS011;39679;49.000;8.390;2022-10-31T03:26:05;3.05;;;2.30;;
37389;SDS011;39679;49.000;8.390;2022-10-31T03:31:07;3.83;;;2.35;;
37389;SDS011;39679;49.000;8.390;2022-10-31T03:36:10;3.90;;;2.13;;
37389;SDS011;39679;49.000;8.390;2022-10-31T03:41:16;3.78;;;2.60;;
37389;SDS011;39679;49.000;8.390;2022-10-31T03:46:21;3.90;;;2.65;;
37389;SDS011;39679;49.000;8.390;2022-10-31T03:51:25;3.17;;;2.28;;
37389;SDS011;39679;49.000;8.390;2022-10-31T03:56:37;4.72;;;2.63;;
37389;SDS011;39679;49.000;8.390;2022-10-31T04:01:44;2.92;;;2.28;;
37389;SDS011;39679;49.000;8.390;2022-10-31T04:06:49;3.65;;;2.20;;
37389;SDS011;39679;49.000;8.390;2022-10-31T04:11:53;6.05;;;2.92;;
37389;SDS011;39679;49.000;8.390;2022-10-31T04:16:56;3.37;;;2.40;;
37389;SDS011;39679;49.000;8.390;2022-10-31T04:21:56;3.58;;;2.50;;
37389;SDS011;39679;49.000;8.390;2022-10-31T04:26:57;5.80;;;2.20;;
37389;SDS011;39679;49.000;8.390;2022-10-31T04:31:57;2.50;;;1.90;;
37389;SDS011;39679;49.000;8.390;2022-10-31T04:36:58;3.70;;;2.23;;
37389;SDS011;39679;49.000;8.390;2022-10-31T04:41:58;3.03;;;2.27;;
37389;SDS011;39679;49.000;8.390;2022-10-31T04:46:58;4.17;;;2.30;;
37389;SDS011;39679;49.000;8.390;2022-10-31T04:51:59;2.55;;;2.25;;
37389;SDS011;39679;49.000;8.390;2022-10-31T04:56:59;3.47;;;2.35;;
37389;SDS011;39679;49.000;8.390;2022-10-31T05:01:59;3.85;;;1.98;;
37389;SDS011;39679;49.000;8.390;2022-10-31T05:07:00;2.93;;;2.10;;
37389;SDS011;39679;49.000;8.390;2022-10-31T05:12:00;3.00;;;2.20;;
37389;SDS011;39679;49.000;8.390;2022-10-31T05:17:00;3.57;;;2.03;;
37389;SDS011;39679;49.000;8.390;2022-10-31T05:22:00;3.70;;;2.13;;
37389;SDS011;39679;49.000;8.390;2022-10-31T05:27:01;3.17;;;1.90;;
37389;SDS011;39679;49.000;8.390;2022-10-31T05:32:01;3.10;;;1.93;;
37389;SDS011;39679;49.000;8.390;2022-10-31T05:37:01;2.60;;;2.40;;
37389;SDS011;39679;49.000;8.390;2022-10-31T05:42:02;2.92;;;2.10;;
37389;SDS011;39679;49.000;8.390;2022-10-31T05:47:02;1.95;;;1.70;;
37389;SDS011;39679;49.000;8.390;2022-10-31T05:52:03;3.90;;;2.10;;
37389;SDS011;39679;49.000;8.390;2022-10-31T05:57:03;4.07;;;2.03;;
37389;SDS011;39679;49.000;8.390;2022-10-31T06:02:03;2.97;;;2.23;;
37389;SDS011;39679;49.000;8.390;2022-10-31T06:07:04;2.30;;;1.90;;
37389;SDS011;39679;49.000;8.390;2022-10-31T06:12:04;3.30;;;2.00;;
37389;SDS011;39679;49.000;8.390;2022-10-31T06:17:04;4.55;;;2.20;;
37389;SDS011;39679;49.000;8.390;2022-10-31T06:22:05;5.37;;;2.33;;
37389;SDS011;39679;49.000;8.390;2022-10-31T06:27:08;3.08;;;1.98;;
37389;SDS011;39679;49.000;8.390;2022-10-31T06:32:11;2.87;;;1.90;;
37389;SDS011;39679;49.000;8.390;2022-10-31T06:37:12;2.22;;;1.70;;
37389;SDS011;39679;49.000;8.390;2022-10-31T06:42:16;2.75;;;1.90;;
37389;SDS011;39679;49.000;8.390;2022-10-31T06:47:16;3.05;;;1.80;;
37389;SDS011;39679;49.000;8.390;2022-10-31T06:52:16;3.13;;;1.80;;
37389;SDS011;39679;49.000;8.390;2022-10-31T06:57:17;5.37;;;2.07;;
37389;SDS011;39679;49.000;8.390;2022-10-31T07:02:17;2.65;;;2.00;;
37389;SDS011;39679;49.000;8.390;2022-10-31T07:07:17;2.30;;;1.47;;
37389;SDS011;39679;49.000;8.390;2022-10-31T07:12:18;2.67;;;1.97;;
37389;SDS011;39679;49.000;8.390;2022-10-31T07:17:18;2.63;;;1.90;;
37389;SDS011;39679;49.000;8.390;2022-10-31T07:22:18;2.00;;;1.60;;
37389;SDS011;39679;49.000;8.390;2022-10-31T07:27:19;2.73;;;1.70;;
37389;SDS011;39679;49.000;8.390;2022-10-31T07:32:19;3.60;;;1.90;;
37389;SDS011;39679;49.000;8.390;2022-10-31T07:37:19;3.03;;;1.90;;
37389;SDS011;39679;49.000;8.390;2022-10-31T07:42:20;1.93;;;1.60;;
37389;SDS011;39679;49.000;8.390;2022-10-31T07:47:20;2.47;;;1.55;;
37389;SDS011;39679;49.000;8.390;2022-10-31T07:52:20;2.67;;;1.95;;
37389;SDS011;39679;49.000;8.390;2022-10-31T07:57:21;4.57;;;2.03;;
37389;SDS011;39679;49.000;8.390;2022-10-31T08:02:21;1.88;;;1.58;;
37389;SDS011;39679;49.000;8.390;2022-10-31T08:07:22;2.22;;;1.67;;
37389;SDS011;39679;49.000;8.390;2022-10-31T08:12:22;2.22;;;1.80;;
37389;SDS011;39679;49.000;8.390;2022-10-31T08:17:22;2.97;;;1.80;;
37389;SDS011;39679;49.000;8.390;2022-10-31T08:22:23;2.97;;;1.77;;
37389;SDS011;39679;49.000;8.390;2022-10-31T08:27:23;2.70;;;1.70;;
37389;SDS011;39679;49.000;8.390;2022-10-31T08:32:24;5.13;;;1.58;;
37389;SDS011;39679;49.000;8.390;2022-10-31T08:37:24;3.47;;;1.77;;
37389;SDS011;39679;49.000;8.390;2022-10-31T08:42:24;4.23;;;2.10;;
37389;SDS011;39679;49.000;8.390;2022-10-31T08:47:25;3.60;;;2.00;;
37389;SDS011;39679;49.000;8.390;2022-10-31T08:52:25;3.47;;;1.83;;
37389;SDS011;39679;49.000;8.390;2022-10-31T08:57:25;5.22;;;2.50;;
37389;SDS011;39679;49.000;8.390;2022-10-31T09:02:26;6.45;;;2.17;;
37389;SDS011;39679;49.000;8.390;2022-10-31T09:07:26;4.85;;;2.40;;
37389;SDS011;39679;49.000;8.390;2022-10-31T09:12:26;6.45;;;2.70;;
37389;SDS011;39679;49.000;8.390;2022-10-31T09:17:27;4.28;;;2.35;;
37389;SDS011;39679;49.000;8.390;2022-10-31T09:22:27;6.32;;;2.47;;
37389;SDS011;39679;49.000;8.390;2022-10-31T09:27:27;8.00;;;3.13;;
37389;SDS011;39679;49.000;8.390;2022-10-31T09:32:28;7.87;;;3.10;;
37389;SDS011;39679;49.000;8.390;2022-10-31T09:37:28;7.33;;;3.30;;
37389;SDS011;39679;49.000;8.390;2022-10-31T09:42:41;6.53;;;3.10;;
37389;SDS011;39679;49.000;8.390;2022-10-31T09:53:12;6.65;;;2.63;;
37389;SDS011;39679;49.000;8.390;2022-10-31T09:58:20;4.93;;;2.80;;
37389;SDS011;39679;49.000;8.390;2022-10-31T10:03:26;6.40;;;2.72;;
37389;SDS011;39679;49.000;8.390;2022-10-31T10:08:35;6.18;;;2.50;;
37389;SDS011;39679;49.000;8.390;2022-10-31T10:13:47;9.45;;;3.38;;
37389;SDS011;39679;49.000;8.390;2022-10-31T10:19:02;3.75;;;2.45;;
37389;SDS011;39679;49.000;8.390;2022-10-31T10:24:20;6.30;;;2.50;;
37389;SDS011;39679;49.000;8.390;2022-10-31T10:34:55;7.22;;;2.85;;
37389;SDS011;39679;49.000;8.390;2022-10-31T10:40:11;5.20;;;2.40;;
37389;SDS011;39679;49.000;8.390;2022-10-31T10:45:17;7.32;;;3.15;;
37389;SDS011;39679;49.000;8.390;2022-10-31T10:50:20;6.20;;;2.95;;
37389;SDS011;39679;49.000;8.390;2022-10-31T11:00:42;5.28;;;3.20;;
37389;SDS011;39679;49.000;8.390;2022-10-31T11:21:27;6.68;;;3.15;;
37389;SDS011;39679;49.000;8.390;2022-10-31T11:26:29;6.55;;;3.20;;
37389;SDS011;39679;49.000;8.390;2022-10-31T11:31:29;8.30;;;3.10;;
37389;SDS011;39679;49.000;8.390;2022-10-31T11:36:30;8.20;;;3.20;;
37389;SDS011;39679;49.000;8.390;2022-10-31T11:41:34;5.97;;;3.13;;
37389;SDS011;39679;49.000;8.390;2022-10-31T11:51:51;9.13;;;4.13;;
37389;SDS011;39679;49.000;8.390;2022-10-31T11:56:54;7.28;;;3.58;;
37389;SDS011;39679;49.000;8.390;2022-10-31T12:01:56;7.28;;;3.67;;
37389;SDS011;39679;49.000;8.390;2022-10-31T12:06:57;6.50;;;3.28;;
37389;SDS011;39679;49.000;8.390;2022-10-31T12:12:10;8.25;;;3.58;;
37389;SDS011;39679;49.000;8.390;2022-10-31T12:17:18;7.40;;;3.20;;
37389;SDS011;39679;49.000;8.390;2022-10-31T12:22:27;5.60;;;3.00;;
37389;SDS011;39679;49.000;8.390;2022-10-31T12:27:59;7.57;;;3.50;;
37389;SDS011;39679;49.000;8.390;2022-10-31T12:54:59;8.30;;;3.65;;
37389;SDS011;39679;49.000;8.390;2022-10-31T13:00:30;6.25;;;3.60;;
37389;SDS011;39679;49.000;8.390;2022-10-31T13:05:36;7.47;;;3.57;;
37389;SDS011;39679;49.000;8.390;2022-10-31T13:16:27;6.63;;;3.20;;
37389;SDS011;39679;49.000;8.390;2022-10-31T13:26:54;6.25;;;3.15;;
37389;SDS011;39679;49.000;8.390;2022-10-31T13:31:57;6.82;;;3.60;;
37389;SDS011;39679;49.000;8.390;2022-10-31T13:37:01;7.22;;;2.97;;
37389;SDS011;39679;49.000;8.390;2022-10-31T13:47:25;6.97;;;3.40;;
37389;SDS011;39679;49.000;8.390;2022-10-31T13:52:27;6.88;;;2.67;;
37389;SDS011;39679;49.000;8.390;2022-10-31T13:57:43;4.82;;;2.60;;
37389;SDS011;39679;49.000;8.390;2022-10-31T14:02:48;4.95;;;2.80;;
37389;SDS011;39679;49.000;8.390;2022-10-31T14:07:51;8.18;;;3.65;;
37389;SDS011;39679;49.000;8.390;2022-10-31T14:12:54;4.53;;;2.97;;
37389;SDS011;39679;49.000;8.390;2022-10-31T14:18:16;8.02;;;4.25;;
37389;SDS011;39679;49.000;8.390;2022-10-31T14:23:34;7.53;;;3.40;;
37389;SDS011;39679;49.000;8.390;2022-10-31T14:28:36;5.53;;;3.38;;
37389;SDS011;39679;49.000;8.390;2022-10-31T14:33:37;4.47;;;3.00;;
37389;SDS011;39679;49.000;8.390;2022-10-31T14:54:35;6.93;;;3.40;;
37389;SDS011;39679;49.000;8.390;2022-10-31T14:59:40;7.25;;;3.20;;
37389;SDS011;39679;49.000;8.390;2022-10-31T15:04:46;5.22;;;3.30;;
37389;SDS011;39679;49.000;8.390;2022-10-31T15:15:14;5.68;;;2.92;;
37389;SDS011;39679;49.000;8.390;2022-10-31T15:20:26;5.90;;;3.35;;
37389;SDS011;39679;49.000;8.390;2022-10-31T15:25:30;6.60;;;3.60;;
37389;SDS011;39679;49.000;8.390;2022-10-31T15:30:33;7.78;;;3.83;;
37389;SDS011;39679;49.000;8.390;2022-10-31T15:35:33;7.68;;;3.63;;
37389;SDS011;39679;49.000;8.390;2022-10-31T15:40:34;8.32;;;3.63;;
37389;SDS011;39679;49.000;8.390;2022-10-31T15:45:34;7.07;;;3.28;;
37389;SDS011;39679;49.000;8.390;2022-10-31T15:50:36;5.38;;;3.10;;
37389;SDS011;39679;49.000;8.390;2022-10-31T15:55:44;9.23;;;4.05;;
37389;SDS011;39679;49.000;8.390;2022-10-31T16:00:59;6.95;;;3.63;;
37389;SDS011;39679;49.000;8.390;2022-10-31T16:06:03;5.75;;;3.80;;
37389;SDS011;39679;49.000;8.390;2022-10-31T16:16:11;9.00;;;4.68;;
37389;SDS011;39679;49.000;8.390;2022-10-31T16:21:13;8.38;;;4.30;;
37389;SDS011;39679;49.000;8.390;2022-10-31T16:26:15;6.05;;;4.00;;
37389;SDS011;39679;49.000;8.390;2022-10-31T16:31:24;6.35;;;3.78;;
37389;SDS011;39679;49.000;8.390;2022-10-31T16:36:31;7.32;;;3.78;;
37389;SDS011;39679;49.000;8.390;2022-10-31T16:41:40;5.80;;;3.92;;
37389;SDS011;39679;49.000;8.390;2022-10-31T16:46:42;4.68;;;3.53;;
37389;SDS011;39679;49.000;8.390;2022-10-31T16:51:45;8.45;;;4.25;;
37389;SDS011;39679;49.000;8.390;2022-10-31T16:56:45;5.77;;;3.93;;
37389;SDS011;39679;49.000;8.390;2022-10-31T17:01:46;6.63;;;3.60;;
37389;SDS011;39679;49.000;8.390;2022-10-31T17:06:48;7.15;;;4.10;;
37389;SDS011;39679;49.000;8.390;2022-10-31T17:11:52;8.73;;;3.90;;
37389;SDS011;39679;49.000;8.390;2022-10-31T17:16:53;7.45;;;4.07;;
37389;SDS011;39679;49.000;8.390;2022-10-31T17:21:53;9.02;;;4.28;;
37389;SDS011;39679;49.000;8.390;2022-10-31T17:26:53;6.63;;;4.57;;
37389;SDS011;39679;49.000;8.390;2022-10-31T17:31:54;10.50;;;5.10;;
37389;SDS011;39679;49.000;8.390;2022-10-31T17:36:54;7.60;;;4.33;;
37389;SDS011;39679;49.000;8.390;2022-10-31T17:41:57;20.10;;;5.20;;
37389;SDS011;39679;49.000;8.390;2022-10-31T17:46:58;9.90;;;4.82;;
37389;SDS011;39679;49.000;8.390;2022-10-31T17:51:58;11.82;;;4.53;;
37389;SDS011;39679;49.000;8.390;2022-10-31T17:56:58;6.78;;;4.05;;
37389;SDS011;39679;49.000;8.390;2022-10-31T18:01:59;6.88;;;4.57;;
37389;SDS011;39679;49.000;8.390;2022-10-31T18:06:59;6.95;;;4.22;;
37389;SDS011;39679;49.000;8.390;2022-10-31T18:12:00;6.57;;;4.65;;
37389;SDS011;39679;49.000;8.390;2022-10-31T18:17:00;9.20;;;4.90;;
37389;SDS011;39679;49.000;8.390;2022-10-31T18:22:03;6.43;;;4.20;;
37389;SDS011;39679;49.000;8.390;2022-10-31T18:27:03;7.10;;;4.47;;
37389;SDS011;39679;49.000;8.390;2022-10-31T18:32:04;6.97;;;4.05;;
37389;SDS011;39679;49.000;8.390;2022-10-31T18:37:04;7.90;;;4.47;;
37389;SDS011;39679;49.000;8.390;2022-10-31T18:42:04;8.50;;;4.55;;
37389;SDS011;39679;49.000;8.390;2022-10-31T18:47:05;8.02;;;4.30;;
37389;SDS011;39679;49.000;8.390;2022-10-31T18:52:08;7.72;;;4.13;;
37389;SDS011;39679;49.000;8.390;2022-10-31T18:57:08;6.75;;;4.10;;
37389;SDS011;39679;49.000;8.390;2022-10-31T19:02:11;5.57;;;3.70;;
37389;SDS011;39679;49.000;8.390;2022-10-31T19:07:14;6.25;;;3.90;;
37389;SDS011;39679;49.000;8.390;2022-10-31T19:12:14;8.50;;;4.40;;
37389;SDS011;39679;49.000;8.390;2022-10-31T19:17:15;7.07;;;3.78;;
37389;SDS011;39679;49.000;8.390;2022-10-31T19:22:15;8.45;;;4.15;;
37389;SDS011;39679;49.000;8.390;2022-10-31T19:27:15;7.55;;;4.07;;
37389;SDS011;39679;49.000;8.390;2022-10-31T19:32:16;6.97;;;4.00;;
37389;SDS011;39679;49.000;8.390;2022-10-31T19:37:16;5.50;;;3.53;;
37389;SDS011;39679;49.000;8.390;2022-10-31T19:42:17;5.32;;;3.20;;
37389;SDS011;39679;49.000;8.390;2022-10-31T19:47:17;6.50;;;3.80;;
37389;SDS011;39679;49.000;8.390;2022-10-31T19:52:17;6.07;;;3.77;;
37389;SDS011;39679;49.000;8.390;2022-10-31T19:57:18;8.80;;;4.22;;
37389;SDS011;39679;49.000;8.390;2022-10-31T20:02:21;6.43;;;3.70;;
37389;SDS011;39679;49.000;8.390;2022-10-31T20:07:21;7.40;;;3.93;;
37389;SDS011;39679;49.000;8.390;2022-10-31T20:12:21;6.68;;;3.83;;
37389;SDS011;39679;49.000;8.390;2022-10-31T20:17:21;6.37;;;3.90;;
37389;SDS011;39679;49.000;8.390;2022-10-31T20:22:28;6.20;;;4.03;;
37389;SDS011;39679;49.000;8.390;2022-10-31T20:27:28;7.27;;;3.90;;
37389;SDS011;39679;49.000;8.390;2022-10-31T20:32:28;5.87;;;3.90;;
37389;SDS011;39679;49.000;8.390;2022-10-31T20:37:29;6.07;;;4.10;;
37389;SDS011;39679;49.000;8.390;2022-10-31T20:42:29;8.25;;;4.55;;
37389;SDS011;39679;49.000;8.390;2022-10-31T20:47:29;6.22;;;4.47;;
37389;SDS011;39679;49.000;8.390;2022-10-31T20:52:30;6.03;;;4.13;;
37389;SDS011;39679;49.000;8.390;2022-10-31T20:57:30;5.65;;;3.88;;
37389;SDS011;39679;49.000;8.390;2022-10-31T21:02:30;8.85;;;4.45;;
37389;SDS011;39679;49.000;8.390;2022-10-31T21:07:31;8.93;;;4.47;;
37389;SDS011;39679;49.000;8.390;2022-10-31T21:12:31;6.65;;;3.58;;
37389;SDS011;39679;49.000;8.390;2022-10-31T21:17:31;6.78;;;4.35;;
37389;SDS011;39679;49.000;8.390;2022-10-31T21:22:34;6.50;;;4.20;;
37389;SDS011;39679;49.000;8.390;2022-10-31T21:27:35;9.23;;;4.32;;
37389;SDS011;39679;49.000;8.390;2022-10-31T21:32:35;6.17;;;4.03;;
37389;SDS011;39679;49.000;8.390;2022-10-31T21:37:36;9.53;;;4.00;;
37389;SDS011;39679;49.000;8.390;2022-10-31T21:42:36;7.50;;;4.53;;
37389;SDS011;39679;49.000;8.390;2022-10-31T21:47:36;6.73;;;3.87;;
37389;SDS011;39679;49.000;8.390;2022-10-31T21:52:37;7.73;;;4.23;;
37389;SDS011;39679;49.000;8.390;2022-10-31T21:57:37;8.10;;;4.32;;
37389;SDS011;39679;49.000;8.390;2022-10-31T22:02:37;6.60;;;4.22;;
37389;SDS011;39679;49.000;8.390;2022-10-31T22:07:38;9.52;;;3.90;;
37389;SDS011;39679;49.000;8.390;2022-10-31T22:12:38;6.57;;;3.80;;
37389;SDS011;39679;49.000;8.390;2022-10-31T22:17:38;5.40;;;3.70;;
37389;SDS011;39679;49.000;8.390;2022-10-31T22:22:39;5.30;;;3.50;;
37389;SDS011;39679;49.000;8.390;2022-10-31T22:27:39;7.80;;;4.22;;
37389;SDS011;39679;49.000;8.390;2022-10-31T22:32:40;6.40;;;4.57;;
37389;SDS011;39679;49.000;8.390;2022-10-31T22:37:40;6.23;;;4.37;;
37389;SDS011;39679;49.000;8.390;2022-10-31T22:42:40;6.07;;;4.10;;
37389;SDS011;39679;49.000;8.390;2022-10-31T22:47:41;9.15;;;4.30;;
37389;SDS011;39679;49.000;8.390;2022-10-31T22:52:41;6.75;;;4.30;;
37389;SDS011;39679;49.000;8.390;2022-10-31T22:57:42;6.80;;;4.18;;
37389;SDS011;39679;49.000;8.390;2022-10-31T23:02:42;9.88;;;5.05;;
37389;SDS011;39679;49.000;8.390;2022-10-31T23:07:44;6.22;;;4.30;;
37389;SDS011;39679;49.000;8.390;2022-10-31T23:12:44;7.97;;;4.33;;
37389;SDS011;39679;49.000;8.390;2022-10-31T23:17:44;7.32;;;4.00;;
37389;SDS011;39679;49.000;8.390;2022-10-31T23:22:44;6.78;;;3.95;;
37389;SDS011;39679;49.000;8.390;2022-10-31T23:27:45;6.47;;;4.38;;
37389;SDS011;39679;49.000;8.390;2022-10-31T23:32:45;7.10;;;4.45;;
37389;SDS011;39679;49.000;8.390;2022-10-31T23:37:48;7.63;;;4.20;;
37389;SDS011;39679;49.000;8.390;2022-10-31T23:42:49;6.53;;;4.47;;
37389;SDS011;39679;49.000;8.390;2022-10-31T23:47:49;8.35;;;4.70;;
37389;SDS011;39679;49.000;8.390;2022-10-31T23:52:49;6.97;;;4.68;;
37389;SDS011;39679;49.000;8.390;2022-10-31T23:57:50;6.90;;;4.25;;
